createdAt,value
2023-07-18T00:00:26.708Z,100538.53
2023-07-18T00:03:29.812Z,100531.78
2023-07-18T00:06:31.786Z,100529.28
2023-07-18T00:09:33.745Z,100533.13
2023-07-18T00:12:36.483Z,100525.50
2023-07-18T00:15:38.953Z,100532.75
2023-07-18T00:18:40.931Z,100529.34
2023-07-18T00:21:42.889Z,100521.00
2023-07-18T00:24:44.961Z,100532.06
2023-07-18T00:27:47.408Z,100537.53
2023-07-18T00:30:49.355Z,100531.31
2023-07-18T00:33:51.243Z,100531.94
2023-07-18T00:36:56.440Z,100524.13
2023-07-18T00:39:58.432Z,100516.22
2023-07-18T00:43:00.328Z,100514.03
2023-07-18T00:46:02.377Z,100521.50
2023-07-18T00:49:04.540Z,100523.03
2023-07-18T00:52:07.501Z,100523.69
2023-07-18T00:55:09.814Z,100521.00
2023-07-18T00:58:11.696Z,100511.87
2023-07-18T01:01:13.657Z,100510.50
2023-07-18T01:04:16.222Z,100513.56
2023-07-18T01:07:19.693Z,100519.47
2023-07-18T01:10:25.945Z,100516.28
2023-07-18T01:13:28.259Z,100512.56
2023-07-18T01:16:30.568Z,100509.97
2023-07-18T01:19:32.415Z,100518.13
2023-07-18T01:22:34.748Z,100514.91
2023-07-18T01:25:38.390Z,100522.66
2023-07-18T01:28:40.236Z,100518.63
2023-07-18T01:31:42.914Z,100513.75
2023-07-18T01:34:44.809Z,100517.78
2023-07-18T01:37:47.720Z,100512.53
2023-07-18T01:40:49.710Z,100502.41
2023-07-18T01:43:51.634Z,100505.13
2023-07-18T01:46:53.627Z,100503.94
2023-07-18T01:49:55.616Z,100512.38
2023-07-18T01:52:57.514Z,100503.31
2023-07-18T01:56:00.096Z,100503.16
2023-07-18T01:59:02.004Z,100495.81
2023-07-18T02:02:07.555Z,100493.63
2023-07-18T02:05:09.532Z,100507.00
2023-07-18T02:08:11.795Z,100508.97
2023-07-18T02:11:13.713Z,100511.94
2023-07-18T02:14:20.622Z,100511.34
2023-07-18T02:17:22.580Z,100535.34
2023-07-18T02:20:24.617Z,100542.75
2023-07-18T02:23:26.506Z,100545.16
2023-07-18T02:26:28.380Z,100541.66
2023-07-18T02:29:30.378Z,100541.00
2023-07-18T02:32:32.312Z,100548.69
2023-07-18T02:35:34.167Z,100553.28
2023-07-18T02:38:36.085Z,100556.69
2023-07-18T02:41:38.462Z,100560.72
2023-07-18T02:44:40.306Z,100554.53
2023-07-18T02:47:44.518Z,100565.44
2023-07-18T02:50:46.865Z,100570.97
2023-07-18T02:53:50.683Z,100571.97
2023-07-18T02:56:52.592Z,100575.19
2023-07-18T02:59:54.697Z,100579.34
2023-07-18T03:02:56.684Z,100579.78
2023-07-18T03:05:58.712Z,100584.12
2023-07-18T03:09:01.105Z,100591.97
2023-07-18T03:12:03.119Z,100589.63
2023-07-18T03:15:06.025Z,100587.00
2023-07-18T03:18:08.223Z,100585.16
2023-07-18T03:21:10.602Z,100584.50
2023-07-18T03:24:12.515Z,100593.66
2023-07-18T03:27:14.570Z,100588.78
2023-07-18T03:30:17.372Z,100578.06
2023-07-18T03:33:19.383Z,100589.16
2023-07-18T03:36:21.637Z,100579.87
2023-07-18T03:39:23.682Z,100565.59
2023-07-18T03:42:25.924Z,100576.97
2023-07-18T03:45:27.855Z,100574.00
2023-07-18T03:48:29.905Z,100575.22
2023-07-18T03:51:34.702Z,100579.50
2023-07-18T03:54:39.880Z,100579.13
2023-07-18T03:57:42.783Z,100588.63
2023-07-18T04:00:44.735Z,100587.16
2023-07-18T04:03:46.801Z,100594.78
2023-07-18T04:06:49.097Z,100597.44
2023-07-18T04:09:51.019Z,100590.69
2023-07-18T04:12:53.062Z,100592.28
2023-07-18T04:15:55.639Z,100587.84
2023-07-18T04:18:57.699Z,100592.06
2023-07-18T04:21:59.581Z,100598.31
2023-07-18T04:25:01.509Z,100594.75
2023-07-18T04:28:03.991Z,100599.50
2023-07-18T04:31:06.349Z,100591.88
2023-07-18T04:34:08.374Z,100599.84
2023-07-18T04:37:10.270Z,100599.37
2023-07-18T04:40:12.917Z,100605.28
2023-07-18T04:43:14.822Z,100598.75
2023-07-18T04:46:17.489Z,100597.59
2023-07-18T04:49:20.227Z,100603.00
2023-07-18T04:52:22.145Z,100601.97
2023-07-18T04:55:24.171Z,100612.31
2023-07-18T04:58:26.679Z,100604.28
2023-07-18T05:01:30.197Z,100614.97
2023-07-18T05:04:32.256Z,100613.66
2023-07-18T05:07:34.319Z,100616.56
2023-07-18T05:10:36.322Z,100616.56
2023-07-18T05:13:38.324Z,100628.59
2023-07-18T05:16:40.294Z,100626.50
2023-07-18T05:19:42.160Z,100635.62
2023-07-18T05:22:45.157Z,100635.88
2023-07-18T05:25:47.128Z,100639.34
2023-07-18T05:28:49.394Z,100638.66
2023-07-18T05:31:51.398Z,100649.03
2023-07-18T05:34:53.295Z,100643.13
2023-07-18T05:37:55.734Z,100644.56
2023-07-18T05:40:57.787Z,100644.66
2023-07-18T05:43:59.737Z,100637.91
2023-07-18T05:47:01.712Z,100644.34
2023-07-18T05:50:04.023Z,100648.56
2023-07-18T05:53:06.121Z,100643.03
2023-07-18T05:56:08.829Z,100655.41
2023-07-18T05:59:10.764Z,100645.91
2023-07-18T06:02:12.809Z,100642.47
2023-07-18T06:05:15.487Z,100645.88
2023-07-18T06:08:18.076Z,100644.06
2023-07-18T06:11:20.250Z,100663.22
2023-07-18T06:14:22.406Z,100668.03
2023-07-18T06:17:24.560Z,100664.59
2023-07-18T06:20:26.546Z,100668.84
2023-07-18T06:23:28.470Z,100663.44
2023-07-18T06:26:30.445Z,100675.38
2023-07-18T06:29:32.490Z,100666.09
2023-07-18T06:32:34.505Z,100671.94
2023-07-18T06:35:36.479Z,100657.94
2023-07-18T06:38:38.892Z,100664.91
2023-07-18T06:41:41.088Z,100659.22
2023-07-18T06:44:43.045Z,100661.06
2023-07-18T06:47:47.421Z,100654.37
2023-07-18T06:50:52.468Z,100663.38
2023-07-18T06:53:54.544Z,100671.53
2023-07-18T06:56:56.576Z,100679.94
2023-07-18T06:59:58.507Z,100676.97
2023-07-18T07:03:00.572Z,100666.47
2023-07-18T07:06:02.572Z,100678.91
2023-07-18T07:09:04.620Z,100683.56
2023-07-18T07:12:06.979Z,100682.75
2023-07-18T07:15:09.153Z,100694.44
2023-07-18T07:18:11.471Z,100699.75
2023-07-18T07:21:15.654Z,100711.69
2023-07-18T07:24:18.282Z,100700.56
2023-07-18T07:27:20.737Z,100707.34
2023-07-18T07:30:22.760Z,100706.31
2023-07-18T07:33:27.074Z,100702.66
2023-07-18T07:36:29.461Z,100703.78
2023-07-18T07:39:31.684Z,100701.91
2023-07-18T07:42:33.851Z,100696.16
2023-07-18T07:45:35.793Z,100691.09
2023-07-18T07:48:37.745Z,100697.22
2023-07-18T07:51:39.875Z,100698.53
2023-07-18T07:54:42.114Z,100708.31
2023-07-18T07:57:44.505Z,100706.38
2023-07-18T08:00:46.683Z,100706.38
2023-07-18T08:03:49.502Z,100701.56
2023-07-18T08:06:53.832Z,100697.63
2023-07-18T08:09:56.354Z,100703.47
2023-07-18T08:12:58.284Z,100701.75
2023-07-18T08:16:00.275Z,100700.38
2023-07-18T08:19:02.243Z,100705.84
2023-07-18T08:22:04.547Z,100705.03
2023-07-18T08:25:06.539Z,100704.59
2023-07-18T08:28:08.410Z,100703.03
2023-07-18T08:31:10.715Z,100715.25
2023-07-18T08:34:12.721Z,100712.13
2023-07-18T08:37:14.686Z,100710.31
2023-07-18T08:40:16.659Z,100711.97
2023-07-18T08:43:19.555Z,100704.31
2023-07-18T08:46:22.006Z,100714.22
2023-07-18T08:49:26.102Z,100705.75
2023-07-18T08:52:28.051Z,100706.59
2023-07-18T08:55:35.733Z,100702.03
2023-07-18T08:58:40.777Z,100702.50
2023-07-18T09:01:46.928Z,100711.06
2023-07-18T09:04:48.895Z,100717.97
2023-07-18T09:07:50.918Z,100701.56
2023-07-18T09:11:02.389Z,100700.12
2023-07-18T09:14:04.499Z,100704.44
2023-07-18T09:17:08.133Z,100698.37
2023-07-18T09:20:10.613Z,100696.12
2023-07-18T09:23:13.797Z,100697.44
2023-07-18T09:26:16.586Z,100696.84
2023-07-18T09:29:18.834Z,100695.44
2023-07-18T09:32:21.697Z,100694.00
2023-07-18T09:35:23.763Z,100685.16
2023-07-18T09:38:26.314Z,100693.19
2023-07-18T09:41:28.483Z,100690.69
2023-07-18T09:44:33.943Z,100680.38
2023-07-18T09:47:36.295Z,100688.81
2023-07-18T09:50:39.714Z,100676.78
2023-07-18T09:53:47.204Z,100671.22
2023-07-18T09:56:49.555Z,100660.94
2023-07-18T09:59:51.534Z,100660.19
2023-07-18T10:02:54.278Z,100660.72
2023-07-18T10:05:56.645Z,100660.75
2023-07-18T10:08:58.510Z,100655.09
2023-07-18T10:12:00.588Z,100657.28
2023-07-18T10:15:04.293Z,100649.28
2023-07-18T10:18:26.884Z,100647.13
2023-07-18T10:21:33.488Z,100649.97
2023-07-18T10:24:35.582Z,100654.56
2023-07-18T10:27:39.056Z,100647.59
2023-07-18T10:30:42.987Z,100645.97
2023-07-18T10:34:04.325Z,100642.00
2023-07-18T10:37:08.920Z,100643.00
2023-07-18T10:40:11.941Z,100636.19
2023-07-18T10:43:17.994Z,100629.59
2023-07-18T10:46:21.317Z,100624.78
2023-07-18T10:49:33.123Z,100630.34
2023-07-18T10:52:36.301Z,100611.06
2023-07-18T10:55:39.816Z,100601.12
2023-07-18T10:58:41.866Z,100594.69
2023-07-18T11:01:43.884Z,100588.22
2023-07-18T11:04:45.916Z,100589.19
2023-07-18T11:07:48.317Z,100581.91
2023-07-18T11:10:54.158Z,100583.63
2023-07-18T11:13:56.252Z,100584.25
2023-07-18T11:16:58.650Z,100569.97
2023-07-18T11:20:00.652Z,100578.19
2023-07-18T11:23:02.760Z,100565.44
2023-07-18T11:26:13.603Z,100565.94
2023-07-18T11:29:15.868Z,100567.22
2023-07-18T11:32:33.442Z,100570.31
2023-07-18T11:35:35.712Z,100571.69
2023-07-18T11:38:39.022Z,100563.22
2023-07-18T11:41:41.419Z,100558.31
2023-07-18T11:44:43.353Z,100553.44
2023-07-18T11:47:49.206Z,100534.44
2023-07-18T11:50:51.458Z,100541.72
2023-07-18T11:53:53.390Z,100535.44
2023-07-18T11:56:55.455Z,100532.81
2023-07-18T11:59:57.610Z,100529.94
2023-07-18T12:02:59.796Z,100529.97
2023-07-18T12:06:01.847Z,100539.34
2023-07-18T12:09:07.686Z,100524.66
2023-07-18T12:12:10.381Z,100521.97
2023-07-18T12:15:14.290Z,100519.50
2023-07-18T12:18:16.281Z,100512.25
2023-07-18T12:21:18.526Z,100509.72
2023-07-18T12:24:20.805Z,100504.78
2023-07-18T12:27:22.922Z,100502.69
2023-07-18T12:30:24.919Z,100494.06
2023-07-18T12:33:27.008Z,100504.34
2023-07-18T12:36:28.920Z,100505.75
2023-07-18T12:39:31.080Z,100507.75
2023-07-18T12:42:33.002Z,100501.87
2023-07-18T12:45:35.040Z,100503.25
2023-07-18T12:48:36.987Z,100496.69
2023-07-18T12:51:39.150Z,100501.09
2023-07-18T12:54:41.387Z,100491.75
2023-07-18T12:57:43.411Z,100485.44
2023-07-18T13:00:45.590Z,100478.97
2023-07-18T13:03:47.845Z,100470.56
2023-07-18T13:06:50.826Z,100473.31
2023-07-18T13:09:53.913Z,100466.59
2023-07-18T13:12:55.879Z,100466.75
2023-07-18T13:15:59.424Z,100464.00
2023-07-18T13:19:01.904Z,100457.13
2023-07-18T13:22:04.629Z,100459.12
2023-07-18T13:25:07.233Z,100452.72
2023-07-18T13:28:09.636Z,100449.19
2023-07-18T13:31:12.740Z,100448.13
2023-07-18T13:34:14.835Z,100442.66
2023-07-18T13:37:16.792Z,100442.03
2023-07-18T13:40:18.903Z,100440.56
2023-07-18T13:43:20.966Z,100442.38
2023-07-18T13:46:23.446Z,100435.81
2023-07-18T13:49:49.142Z,100452.09
2023-07-18T13:52:49.761Z,100441.69
2023-07-18T13:55:51.800Z,100429.78
2023-07-18T13:58:54.132Z,100428.13
2023-07-18T14:01:56.170Z,100427.28
2023-07-18T14:04:58.606Z,100437.00
2023-07-18T14:08:00.476Z,100422.75
2023-07-18T14:11:03.734Z,100422.94
2023-07-18T14:14:05.838Z,100424.41
2023-07-18T14:17:07.827Z,100413.31
2023-07-18T14:20:10.442Z,100414.25
2023-07-18T14:23:12.504Z,100396.50
2023-07-18T14:26:14.969Z,100400.31
2023-07-18T14:29:17.291Z,100386.47
2023-07-18T14:32:19.515Z,100384.41
2023-07-18T14:35:22.005Z,100390.06
2023-07-18T14:38:23.980Z,100385.81
2023-07-18T14:41:26.067Z,100393.09
2023-07-18T14:44:28.268Z,100394.22
2023-07-18T14:47:30.315Z,100381.69
2023-07-18T14:50:32.276Z,100378.12
2023-07-18T14:53:35.025Z,100391.50
2023-07-18T14:56:38.403Z,100380.81
2023-07-18T14:59:40.784Z,100367.47
2023-07-18T15:02:43.059Z,100371.66
2023-07-18T15:05:45.006Z,100372.16
2023-07-18T15:08:48.549Z,100365.91
2023-07-18T15:11:50.888Z,100369.31
2023-07-18T15:14:53.503Z,100363.81
2023-07-18T15:17:55.362Z,100366.37
2023-07-18T15:20:59.254Z,100369.91
2023-07-18T15:24:01.504Z,100371.63
2023-07-18T15:27:03.808Z,100358.00
2023-07-18T15:30:07.596Z,100368.69
2023-07-18T15:33:25.606Z,100356.28
2023-07-18T15:36:29.204Z,100350.66
2023-07-18T15:39:31.199Z,100339.63
2023-07-18T15:42:33.679Z,100334.47
2023-07-18T15:45:35.566Z,100332.59
2023-07-18T15:48:37.819Z,100320.25
2023-07-18T15:51:40.104Z,100312.44
2023-07-18T15:54:42.073Z,100319.13
2023-07-18T15:57:44.014Z,100305.69
2023-07-18T16:00:46.020Z,100303.28
2023-07-18T16:03:48.191Z,100290.63
2023-07-18T16:06:50.376Z,100280.19
2023-07-18T16:09:53.469Z,100296.38
2023-07-18T16:12:55.835Z,100291.94
2023-07-18T16:15:57.723Z,100273.19
2023-07-18T16:19:04.737Z,100276.06
2023-07-18T16:22:07.171Z,100272.59
2023-07-18T16:25:09.579Z,100271.34
2023-07-18T16:28:11.554Z,100274.97
2023-07-18T16:31:13.712Z,100291.13
2023-07-18T16:34:16.498Z,100286.84
2023-07-18T16:37:18.599Z,100286.09
2023-07-18T16:40:21.449Z,100280.16
2023-07-18T16:43:23.345Z,100271.37
2023-07-18T16:46:25.312Z,100275.63
2023-07-18T16:49:27.188Z,100284.78
2023-07-18T16:52:29.175Z,100299.69
2023-07-18T16:55:31.172Z,100300.28
2023-07-18T16:58:33.126Z,100295.91
2023-07-18T17:01:35.205Z,100294.66
2023-07-18T17:04:37.471Z,100280.66
2023-07-18T17:07:39.422Z,100288.56
2023-07-18T17:10:41.595Z,100299.94
2023-07-18T17:13:43.720Z,100291.34
2023-07-18T17:16:46.576Z,100285.81
2023-07-18T17:20:04.628Z,100289.62
2023-07-18T17:23:09.668Z,100306.56
2023-07-18T17:26:11.614Z,100321.72
2023-07-18T17:29:13.516Z,100313.66
2023-07-18T17:32:15.504Z,100308.59
2023-07-18T17:35:17.964Z,100308.41
2023-07-18T17:38:19.923Z,100310.31
2023-07-18T17:41:22.016Z,100300.12
2023-07-18T17:44:24.267Z,100293.09
2023-07-18T17:47:26.274Z,100299.72
2023-07-18T17:50:28.383Z,100294.72
2023-07-18T17:53:31.712Z,100288.22
2023-07-18T17:56:33.837Z,100303.28
2023-07-18T17:59:35.730Z,100304.91
2023-07-18T18:02:37.868Z,100295.31
2023-07-18T18:05:51.566Z,100293.63
2023-07-18T18:08:53.814Z,100291.41
2023-07-18T18:11:57.341Z,100295.53
2023-07-18T18:14:59.322Z,100297.78
2023-07-18T18:18:02.527Z,100307.66
2023-07-18T18:21:04.808Z,100310.84
2023-07-18T18:24:06.979Z,100323.41
2023-07-18T18:27:09.323Z,100316.25
2023-07-18T18:30:12.109Z,100320.91
2023-07-18T18:33:13.976Z,100305.37
2023-07-18T18:36:15.988Z,100297.38
2023-07-18T18:39:18.639Z,100285.03
2023-07-18T18:42:20.529Z,100281.91
2023-07-18T18:45:22.473Z,100271.53
2023-07-18T18:48:24.647Z,100252.81
2023-07-18T18:51:27.181Z,100269.47
2023-07-18T18:54:29.075Z,100279.44
2023-07-18T18:57:31.324Z,100285.91
2023-07-18T19:00:33.424Z,100298.28
2023-07-18T19:03:35.551Z,100295.28
2023-07-18T19:06:37.740Z,100276.03
2023-07-18T19:09:40.834Z,100267.91
2023-07-18T19:12:42.766Z,100269.97
2023-07-18T19:15:44.798Z,100252.84
2023-07-18T19:18:46.769Z,100251.88
2023-07-18T19:21:48.771Z,100246.28
2023-07-18T19:24:51.110Z,100239.03
2023-07-18T19:27:53.193Z,100237.44
2023-07-18T19:30:55.250Z,100221.97
2023-07-18T19:33:57.187Z,100230.03
2023-07-18T19:36:59.228Z,100230.37
2023-07-18T19:40:01.404Z,100227.63
2023-07-18T19:43:03.330Z,100218.53
2023-07-18T19:46:06.067Z,100217.59
2023-07-18T19:49:08.087Z,100206.84
2023-07-18T19:52:10.261Z,100207.66
2023-07-18T19:55:12.309Z,100217.28
2023-07-18T19:58:14.290Z,100214.34
2023-07-18T20:01:16.229Z,100203.34
2023-07-18T20:04:18.638Z,100219.91
2023-07-18T20:07:22.590Z,100227.25
2023-07-18T20:10:24.568Z,100222.16
2023-07-18T20:13:26.512Z,100214.75
2023-07-18T20:16:28.587Z,100196.91
2023-07-18T20:19:30.575Z,100205.72
2023-07-18T20:22:32.580Z,100206.50
2023-07-18T20:25:34.519Z,100218.66
2023-07-18T20:28:37.405Z,100196.59
2023-07-18T20:31:39.438Z,100177.25
2023-07-18T20:34:41.930Z,100197.06
2023-07-18T20:37:43.877Z,100182.91
2023-07-18T20:40:46.447Z,100181.41
2023-07-18T20:43:48.508Z,100177.72
2023-07-18T20:46:50.541Z,100180.59
2023-07-18T20:49:52.678Z,100175.09
2023-07-18T20:52:54.782Z,100169.25
2023-07-18T20:55:57.168Z,100164.84
2023-07-18T20:58:59.117Z,100147.62
2023-07-18T21:02:00.959Z,100147.81
2023-07-18T21:05:03.007Z,100148.59
2023-07-18T21:08:05.251Z,100151.41
2023-07-18T21:11:07.617Z,100133.25
2023-07-18T21:14:09.508Z,100129.78
2023-07-18T21:17:11.448Z,100134.69
2023-07-18T21:20:13.863Z,100129.59
2023-07-18T21:23:15.938Z,100129.63
2023-07-18T21:26:18.077Z,100128.50
2023-07-18T21:29:21.883Z,100133.47
2023-07-18T21:32:23.994Z,100130.00
2023-07-18T21:35:26.015Z,100121.56
2023-07-18T21:38:29.256Z,100118.06
2023-07-18T21:41:31.998Z,100111.78
2023-07-18T21:44:34.022Z,100110.72
2023-07-18T21:47:36.183Z,100099.31
2023-07-18T21:50:40.126Z,100082.88
2023-07-18T21:53:41.996Z,100096.53
2023-07-18T21:56:44.016Z,100113.16
2023-07-18T21:59:46.083Z,100107.94
2023-07-18T22:02:48.104Z,100100.63
2023-07-18T22:05:50.096Z,100093.28
2023-07-18T22:08:52.076Z,100086.28
2023-07-18T22:11:54.117Z,100088.91
2023-07-18T22:14:56.355Z,100091.56
2023-07-18T22:18:06.383Z,100083.47
2023-07-18T22:21:18.471Z,100083.59
2023-07-18T22:24:21.132Z,100084.00
2023-07-18T22:27:23.404Z,100083.63
2023-07-18T22:30:25.298Z,100077.22
2023-07-18T22:33:27.762Z,100083.06
2023-07-18T22:36:29.741Z,100069.34
2023-07-18T22:39:36.597Z,100061.44
2023-07-18T22:42:39.975Z,100065.78
2023-07-18T22:45:42.865Z,100058.78
2023-07-18T22:48:44.816Z,100055.56
2023-07-18T22:51:47.528Z,100057.09
2023-07-18T22:54:50.801Z,100036.19
2023-07-18T22:57:52.844Z,100034.44
2023-07-18T23:00:54.841Z,100037.69
2023-07-18T23:03:56.920Z,100024.25
2023-07-18T23:06:58.862Z,100007.97
2023-07-18T23:10:00.792Z,100001.56
2023-07-18T23:13:04.815Z,99996.31
2023-07-18T23:16:06.745Z,100000.16
2023-07-18T23:19:08.641Z,100003.69
2023-07-18T23:22:10.544Z,100001.28
2023-07-18T23:25:12.501Z,99998.50
2023-07-18T23:28:16.098Z,99993.53
2023-07-18T23:31:18.638Z,99992.78
2023-07-18T23:34:21.139Z,99982.34
2023-07-18T23:37:23.055Z,99996.81
2023-07-18T23:40:25.251Z,100007.53
2023-07-18T23:43:31.426Z,100005.78
2023-07-18T23:46:34.371Z,100004.16
2023-07-18T23:49:36.320Z,99991.84
2023-07-18T23:52:40.156Z,99997.19
2023-07-18T23:55:51.066Z,100005.44
2023-07-18T23:58:53.090Z,100007.56
